sensor_id;sensor_type;location;lat;lon;timestamp;temperature;humidity
15900;DHT22;8048;50.644;6.184;2023-11-19T00:00:06;11.20;99.90
15900;DHT22;8048;50.644;6.184;2023-11-19T00:02:41;11.20;99.90
15900;DHT22;8048;50.644;6.184;2023-11-19T00:05:06;11.20;99.90
15900;DHT22;8048;50.644;6.184;2023-11-19T00:07:36;11.30;99.90
15900;DHT22;8048;50.644;6.184;2023-11-19T00:10:03;11.30;99.90
15900;DHT22;8048;50.644;6.184;2023-11-19T00:12:37;11.30;99.90
15900;DHT22;8048;50.644;6.184;2023-11-19T00:15:03;11.30;99.90
15900;DHT22;8048;50.644;6.184;2023-11-19T00:17:29;11.30;99.90
15900;DHT22;8048;50.644;6.184;2023-11-19T00:19:54;11.30;99.90
15900;DHT22;8048;50.644;6.184;2023-11-19T00:22:20;11.40;99.90
15900;DHT22;8048;50.644;6.184;2023-11-19T00:24:47;11.40;99.90
15900;DHT22;8048;50.644;6.184;2023-11-19T00:27:12;11.40;99.90
15900;DHT22;8048;50.644;6.184;2023-11-19T00:29:38;11.50;99.90
15900;DHT22;8048;50.644;6.184;2023-11-19T00:32:03;11.50;99.90
15900;DHT22;8048;50.644;6.184;2023-11-19T00:34:31;11.40;99.90
15900;DHT22;8048;50.644;6.184;2023-11-19T00:36:56;11.50;99.90
15900;DHT22;8048;50.644;6.184;2023-11-19T00:39:22;11.40;99.90
15900;DHT22;8048;50.644;6.184;2023-11-19T00:41:48;11.50;99.90
15900;DHT22;8048;50.644;6.184;2023-11-19T00:44:13;11.50;99.90
15900;DHT22;8048;50.644;6.184;2023-11-19T00:46:39;11.50;99.90
15900;DHT22;8048;50.644;6.184;2023-11-19T00:49:05;11.50;99.90
15900;DHT22;8048;50.644;6.184;2023-11-19T00:51:31;11.50;99.90
15900;DHT22;8048;50.644;6.184;2023-11-19T00:53:57;11.50;99.90
15900;DHT22;8048;50.644;6.184;2023-11-19T00:56:23;11.50;99.90
15900;DHT22;8048;50.644;6.184;2023-11-19T00:58:49;11.50;99.90
15900;DHT22;8048;50.644;6.184;2023-11-19T01:01:14;11.50;99.90
15900;DHT22;8048;50.644;6.184;2023-11-19T01:03:40;11.50;99.90
15900;DHT22;8048;50.644;6.184;2023-11-19T01:06:06;11.50;99.90
15900;DHT22;8048;50.644;6.184;2023-11-19T01:08:32;11.50;99.90
15900;DHT22;8048;50.644;6.184;2023-11-19T01:10:57;11.50;99.90
15900;DHT22;8048;50.644;6.184;2023-11-19T01:13:23;11.50;99.90
15900;DHT22;8048;50.644;6.184;2023-11-19T01:15:48;11.50;99.90
15900;DHT22;8048;50.644;6.184;2023-11-19T01:18:14;11.50;99.90
15900;DHT22;8048;50.644;6.184;2023-11-19T01:20:39;11.50;99.90
15900;DHT22;8048;50.644;6.184;2023-11-19T01:23:05;11.40;99.90
15900;DHT22;8048;50.644;6.184;2023-11-19T01:25:30;11.50;99.90
15900;DHT22;8048;50.644;6.184;2023-11-19T01:27:56;11.40;99.90
15900;DHT22;8048;50.644;6.184;2023-11-19T01:30:24;11.50;99.90
15900;DHT22;8048;50.644;6.184;2023-11-19T01:32:50;11.50;99.90
15900;DHT22;8048;50.644;6.184;2023-11-19T01:35:15;11.40;99.90
15900;DHT22;8048;50.644;6.184;2023-11-19T01:37:41;11.40;99.90
15900;DHT22;8048;50.644;6.184;2023-11-19T01:40:07;11.40;99.90
15900;DHT22;8048;50.644;6.184;2023-11-19T01:42:37;11.40;99.90
15900;DHT22;8048;50.644;6.184;2023-11-19T01:45:04;11.40;99.90
15900;DHT22;8048;50.644;6.184;2023-11-19T01:47:32;11.40;99.90
15900;DHT22;8048;50.644;6.184;2023-11-19T01:49:59;11.40;99.90
15900;DHT22;8048;50.644;6.184;2023-11-19T01:52:25;11.40;99.90
15900;DHT22;8048;50.644;6.184;2023-11-19T01:54:52;11.40;99.90
15900;DHT22;8048;50.644;6.184;2023-11-19T01:57:21;11.40;99.90
15900;DHT22;8048;50.644;6.184;2023-11-19T01:59:49;11.30;99.90
15900;DHT22;8048;50.644;6.184;2023-11-19T02:02:16;11.30;99.90
15900;DHT22;8048;50.644;6.184;2023-11-19T02:04:49;11.40;99.90
15900;DHT22;8048;50.644;6.184;2023-11-19T02:07:15;11.40;99.90
15900;DHT22;8048;50.644;6.184;2023-11-19T02:09:43;11.40;99.90
15900;DHT22;8048;50.644;6.184;2023-11-19T02:12:09;11.40;99.90
15900;DHT22;8048;50.644;6.184;2023-11-19T02:14:37;11.30;99.90
15900;DHT22;8048;50.644;6.184;2023-11-19T02:17:03;11.40;99.90
15900;DHT22;8048;50.644;6.184;2023-11-19T02:19:29;11.30;99.90
15900;DHT22;8048;50.644;6.184;2023-11-19T02:21:54;11.30;99.90
15900;DHT22;8048;50.644;6.184;2023-11-19T02:24:22;11.30;99.90
15900;DHT22;8048;50.644;6.184;2023-11-19T02:27:02;11.30;99.90
15900;DHT22;8048;50.644;6.184;2023-11-19T02:29:31;11.30;99.90
15900;DHT22;8048;50.644;6.184;2023-11-19T02:31:57;11.30;99.90
15900;DHT22;8048;50.644;6.184;2023-11-19T02:34:22;11.30;99.90
15900;DHT22;8048;50.644;6.184;2023-11-19T02:36:48;11.30;99.90
15900;DHT22;8048;50.644;6.184;2023-11-19T02:39:15;11.30;99.90
15900;DHT22;8048;50.644;6.184;2023-11-19T02:41:46;11.30;99.90
15900;DHT22;8048;50.644;6.184;2023-11-19T02:44:12;11.30;99.90
15900;DHT22;8048;50.644;6.184;2023-11-19T02:46:38;11.30;99.90
15900;DHT22;8048;50.644;6.184;2023-11-19T02:49:07;11.30;99.90
15900;DHT22;8048;50.644;6.184;2023-11-19T02:51:33;11.30;99.90
15900;DHT22;8048;50.644;6.184;2023-11-19T02:54:00;11.30;99.90
15900;DHT22;8048;50.644;6.184;2023-11-19T02:56:25;11.30;99.90
15900;DHT22;8048;50.644;6.184;2023-11-19T02:58:52;11.30;99.90
15900;DHT22;8048;50.644;6.184;2023-11-19T03:01:24;11.30;99.90
15900;DHT22;8048;50.644;6.184;2023-11-19T03:04:01;11.30;99.90
15900;DHT22;8048;50.644;6.184;2023-11-19T03:06:27;11.30;99.90
15900;DHT22;8048;50.644;6.184;2023-11-19T03:08:54;11.30;99.90
15900;DHT22;8048;50.644;6.184;2023-11-19T03:11:20;11.30;99.90
15900;DHT22;8048;50.644;6.184;2023-11-19T03:13:45;11.30;99.90
15900;DHT22;8048;50.644;6.184;2023-11-19T03:16:12;11.30;99.90
15900;DHT22;8048;50.644;6.184;2023-11-19T03:18:38;11.30;99.90
15900;DHT22;8048;50.644;6.184;2023-11-19T03:21:07;11.30;99.90
15900;DHT22;8048;50.644;6.184;2023-11-19T03:23:36;11.30;99.90
15900;DHT22;8048;50.644;6.184;2023-11-19T03:26:02;11.30;99.90
15900;DHT22;8048;50.644;6.184;2023-11-19T03:28:31;11.30;99.90
15900;DHT22;8048;50.644;6.184;2023-11-19T03:30:56;11.40;99.90
15900;DHT22;8048;50.644;6.184;2023-11-19T03:33:22;11.40;99.90
15900;DHT22;8048;50.644;6.184;2023-11-19T03:35:47;11.40;99.90
15900;DHT22;8048;50.644;6.184;2023-11-19T03:38:13;11.40;99.90
15900;DHT22;8048;50.644;6.184;2023-11-19T03:40:39;11.30;99.90
15900;DHT22;8048;50.644;6.184;2023-11-19T03:43:06;11.30;99.90
15900;DHT22;8048;50.644;6.184;2023-11-19T03:45:31;11.30;99.90
15900;DHT22;8048;50.644;6.184;2023-11-19T03:47:57;11.30;99.90
15900;DHT22;8048;50.644;6.184;2023-11-19T03:50:22;11.30;99.90
15900;DHT22;8048;50.644;6.184;2023-11-19T03:52:49;11.30;99.90
15900;DHT22;8048;50.644;6.184;2023-11-19T03:55:14;11.30;99.90
15900;DHT22;8048;50.644;6.184;2023-11-19T03:57:40;11.30;99.90
15900;DHT22;8048;50.644;6.184;2023-11-19T04:00:06;11.20;99.90
15900;DHT22;8048;50.644;6.184;2023-11-19T04:02:36;11.20;99.90
15900;DHT22;8048;50.644;6.184;2023-11-19T04:05:02;11.30;99.90
15900;DHT22;8048;50.644;6.184;2023-11-19T04:07:29;11.20;99.90
15900;DHT22;8048;50.644;6.184;2023-11-19T04:09:54;11.20;99.90
15900;DHT22;8048;50.644;6.184;2023-11-19T04:12:20;11.20;99.90
15900;DHT22;8048;50.644;6.184;2023-11-19T04:14:47;11.20;99.90
15900;DHT22;8048;50.644;6.184;2023-11-19T04:17:12;11.10;99.90
15900;DHT22;8048;50.644;6.184;2023-11-19T04:19:38;11.20;99.90
15900;DHT22;8048;50.644;6.184;2023-11-19T04:22:10;11.20;99.90
15900;DHT22;8048;50.644;6.184;2023-11-19T04:24:36;11.20;99.90
15900;DHT22;8048;50.644;6.184;2023-11-19T04:27:02;11.20;99.90
15900;DHT22;8048;50.644;6.184;2023-11-19T04:29:30;11.20;99.90
15900;DHT22;8048;50.644;6.184;2023-11-19T04:31:56;11.10;99.90
15900;DHT22;8048;50.644;6.184;2023-11-19T04:34:21;11.10;99.90
15900;DHT22;8048;50.644;6.184;2023-11-19T04:36:47;11.10;99.90
15900;DHT22;8048;50.644;6.184;2023-11-19T04:39:13;11.10;99.90
15900;DHT22;8048;50.644;6.184;2023-11-19T04:41:47;11.00;99.90
15900;DHT22;8048;50.644;6.184;2023-11-19T04:44:14;11.00;99.90
15900;DHT22;8048;50.644;6.184;2023-11-19T04:46:41;11.00;99.90
15900;DHT22;8048;50.644;6.184;2023-11-19T04:49:08;11.00;99.90
15900;DHT22;8048;50.644;6.184;2023-11-19T04:51:43;11.00;99.90
15900;DHT22;8048;50.644;6.184;2023-11-19T04:54:09;11.00;99.90
15900;DHT22;8048;50.644;6.184;2023-11-19T04:56:36;10.90;99.90
15900;DHT22;8048;50.644;6.184;2023-11-19T04:59:03;10.90;99.90
15900;DHT22;8048;50.644;6.184;2023-11-19T05:01:28;10.90;99.90
15900;DHT22;8048;50.644;6.184;2023-11-19T05:03:56;10.90;99.90
15900;DHT22;8048;50.644;6.184;2023-11-19T05:06:28;10.90;99.90
15900;DHT22;8048;50.644;6.184;2023-11-19T05:08:55;10.90;99.90
15900;DHT22;8048;50.644;6.184;2023-11-19T05:11:21;10.90;99.90
15900;DHT22;8048;50.644;6.184;2023-11-19T05:13:46;10.90;99.90
15900;DHT22;8048;50.644;6.184;2023-11-19T05:16:12;10.90;99.90
15900;DHT22;8048;50.644;6.184;2023-11-19T05:18:40;10.90;99.90
15900;DHT22;8048;50.644;6.184;2023-11-19T05:21:05;10.90;99.90
15900;DHT22;8048;50.644;6.184;2023-11-19T05:23:32;10.90;99.90
15900;DHT22;8048;50.644;6.184;2023-11-19T05:25:59;10.90;99.90
15900;DHT22;8048;50.644;6.184;2023-11-19T05:28:25;10.90;99.90
15900;DHT22;8048;50.644;6.184;2023-11-19T05:30:51;10.90;99.90
15900;DHT22;8048;50.644;6.184;2023-11-19T05:33:17;10.90;99.90
15900;DHT22;8048;50.644;6.184;2023-11-19T05:35:42;10.90;99.90
15900;DHT22;8048;50.644;6.184;2023-11-19T05:38:08;10.90;99.90
15900;DHT22;8048;50.644;6.184;2023-11-19T05:40:35;10.80;99.90
15900;DHT22;8048;50.644;6.184;2023-11-19T05:43:00;10.80;99.90
15900;DHT22;8048;50.644;6.184;2023-11-19T05:45:26;10.80;99.90
15900;DHT22;8048;50.644;6.184;2023-11-19T05:47:51;10.80;99.90
15900;DHT22;8048;50.644;6.184;2023-11-19T05:50:18;10.80;99.90
15900;DHT22;8048;50.644;6.184;2023-11-19T05:52:44;10.80;99.90
15900;DHT22;8048;50.644;6.184;2023-11-19T05:55:09;10.70;99.90
15900;DHT22;8048;50.644;6.184;2023-11-19T05:57:37;10.70;99.90
15900;DHT22;8048;50.644;6.184;2023-11-19T06:00:03;10.70;99.90
15900;DHT22;8048;50.644;6.184;2023-11-19T06:02:32;10.60;99.90
15900;DHT22;8048;50.644;6.184;2023-11-19T06:04:58;10.60;99.90
15900;DHT22;8048;50.644;6.184;2023-11-19T06:07:23;10.60;99.90
15900;DHT22;8048;50.644;6.184;2023-11-19T06:09:50;10.60;99.90
15900;DHT22;8048;50.644;6.184;2023-11-19T06:12:15;10.50;99.90
15900;DHT22;8048;50.644;6.184;2023-11-19T06:14:41;10.40;99.90
15900;DHT22;8048;50.644;6.184;2023-11-19T06:17:07;10.40;99.90
15900;DHT22;8048;50.644;6.184;2023-11-19T06:19:33;10.40;99.90
15900;DHT22;8048;50.644;6.184;2023-11-19T06:21:59;10.40;99.90
15900;DHT22;8048;50.644;6.184;2023-11-19T06:24:25;10.30;99.90
15900;DHT22;8048;50.644;6.184;2023-11-19T06:26:50;10.30;99.90
15900;DHT22;8048;50.644;6.184;2023-11-19T06:29:16;10.20;99.90
15900;DHT22;8048;50.644;6.184;2023-11-19T06:31:45;10.20;99.90
15900;DHT22;8048;50.644;6.184;2023-11-19T06:34:11;10.20;99.90
15900;DHT22;8048;50.644;6.184;2023-11-19T06:36:36;10.20;99.90
15900;DHT22;8048;50.644;6.184;2023-11-19T06:39:02;10.20;99.90
15900;DHT22;8048;50.644;6.184;2023-11-19T06:41:28;10.20;99.90
15900;DHT22;8048;50.644;6.184;2023-11-19T06:43:54;10.30;99.90
15900;DHT22;8048;50.644;6.184;2023-11-19T06:46:20;10.30;99.90
15900;DHT22;8048;50.644;6.184;2023-11-19T06:48:46;10.30;99.90
15900;DHT22;8048;50.644;6.184;2023-11-19T06:51:12;10.30;99.90
15900;DHT22;8048;50.644;6.184;2023-11-19T06:53:37;10.40;99.90
15900;DHT22;8048;50.644;6.184;2023-11-19T06:56:05;10.40;99.90
15900;DHT22;8048;50.644;6.184;2023-11-19T06:58:35;10.40;99.90
15900;DHT22;8048;50.644;6.184;2023-11-19T07:01:01;10.40;99.90
15900;DHT22;8048;50.644;6.184;2023-11-19T07:03:26;10.40;99.90
15900;DHT22;8048;50.644;6.184;2023-11-19T07:05:52;10.40;99.90
15900;DHT22;8048;50.644;6.184;2023-11-19T07:08:17;10.30;99.90
15900;DHT22;8048;50.644;6.184;2023-11-19T07:10:43;10.30;99.90
15900;DHT22;8048;50.644;6.184;2023-11-19T07:13:08;10.30;99.90
15900;DHT22;8048;50.644;6.184;2023-11-19T07:15:35;10.30;99.90
15900;DHT22;8048;50.644;6.184;2023-11-19T07:18:00;10.30;99.90
15900;DHT22;8048;50.644;6.184;2023-11-19T07:20:26;10.20;99.90
15900;DHT22;8048;50.644;6.184;2023-11-19T07:22:52;10.20;99.90
15900;DHT22;8048;50.644;6.184;2023-11-19T07:25:17;10.20;99.90
15900;DHT22;8048;50.644;6.184;2023-11-19T07:27:43;10.20;99.90
15900;DHT22;8048;50.644;6.184;2023-11-19T07:30:09;10.20;99.90
15900;DHT22;8048;50.644;6.184;2023-11-19T07:32:34;10.20;99.90
15900;DHT22;8048;50.644;6.184;2023-11-19T07:35:00;10.10;99.90
15900;DHT22;8048;50.644;6.184;2023-11-19T07:37:26;10.20;99.90
15900;DHT22;8048;50.644;6.184;2023-11-19T07:39:51;10.10;99.90
15900;DHT22;8048;50.644;6.184;2023-11-19T07:42:17;10.20;99.90
15900;DHT22;8048;50.644;6.184;2023-11-19T07:44:46;10.20;99.90
15900;DHT22;8048;50.644;6.184;2023-11-19T07:47:11;10.20;99.90
15900;DHT22;8048;50.644;6.184;2023-11-19T07:49:38;10.30;99.90
15900;DHT22;8048;50.644;6.184;2023-11-19T07:52:04;10.30;99.90
15900;DHT22;8048;50.644;6.184;2023-11-19T07:54:29;10.20;99.90
15900;DHT22;8048;50.644;6.184;2023-11-19T07:56:55;10.20;99.90
15900;DHT22;8048;50.644;6.184;2023-11-19T07:59:21;10.20;99.90
15900;DHT22;8048;50.644;6.184;2023-11-19T08:01:47;10.10;99.90
15900;DHT22;8048;50.644;6.184;2023-11-19T08:04:13;10.10;99.90
15900;DHT22;8048;50.644;6.184;2023-11-19T08:06:38;10.10;99.90
15900;DHT22;8048;50.644;6.184;2023-11-19T08:09:04;10.10;99.90
15900;DHT22;8048;50.644;6.184;2023-11-19T08:11:30;10.10;99.90
15900;DHT22;8048;50.644;6.184;2023-11-19T08:13:56;10.10;99.90
15900;DHT22;8048;50.644;6.184;2023-11-19T08:16:21;10.10;99.90
15900;DHT22;8048;50.644;6.184;2023-11-19T08:18:47;10.00;99.90
15900;DHT22;8048;50.644;6.184;2023-11-19T08:21:12;10.00;99.90
15900;DHT22;8048;50.644;6.184;2023-11-19T08:23:38;10.00;99.90
15900;DHT22;8048;50.644;6.184;2023-11-19T08:26:05;10.00;99.90
15900;DHT22;8048;50.644;6.184;2023-11-19T08:28:31;10.00;99.90
15900;DHT22;8048;50.644;6.184;2023-11-19T08:30:56;10.00;99.90
15900;DHT22;8048;50.644;6.184;2023-11-19T08:33:22;10.00;99.90
15900;DHT22;8048;50.644;6.184;2023-11-19T08:35:48;10.10;99.90
15900;DHT22;8048;50.644;6.184;2023-11-19T08:38:13;10.10;99.90
15900;DHT22;8048;50.644;6.184;2023-11-19T08:40:39;10.10;99.90
15900;DHT22;8048;50.644;6.184;2023-11-19T08:43:04;10.20;99.90
15900;DHT22;8048;50.644;6.184;2023-11-19T08:45:30;10.30;99.90
15900;DHT22;8048;50.644;6.184;2023-11-19T08:47:57;10.50;99.90
15900;DHT22;8048;50.644;6.184;2023-11-19T08:50:22;10.60;99.90
15900;DHT22;8048;50.644;6.184;2023-11-19T08:52:48;10.70;99.90
15900;DHT22;8048;50.644;6.184;2023-11-19T08:55:13;10.70;99.90
15900;DHT22;8048;50.644;6.184;2023-11-19T08:57:39;10.80;99.90
15900;DHT22;8048;50.644;6.184;2023-11-19T09:00:05;10.90;99.90
15900;DHT22;8048;50.644;6.184;2023-11-19T09:02:36;11.10;99.90
15900;DHT22;8048;50.644;6.184;2023-11-19T09:05:05;11.30;99.90
15900;DHT22;8048;50.644;6.184;2023-11-19T09:07:33;11.40;99.90
15900;DHT22;8048;50.644;6.184;2023-11-19T09:09:58;11.70;99.90
15900;DHT22;8048;50.644;6.184;2023-11-19T09:12:24;11.80;99.90
15900;DHT22;8048;50.644;6.184;2023-11-19T09:14:49;11.80;99.90
15900;DHT22;8048;50.644;6.184;2023-11-19T09:17:15;11.70;99.90
15900;DHT22;8048;50.644;6.184;2023-11-19T09:19:41;11.60;99.90
15900;DHT22;8048;50.644;6.184;2023-11-19T09:22:07;11.40;99.90
15900;DHT22;8048;50.644;6.184;2023-11-19T09:24:32;11.30;99.90
15900;DHT22;8048;50.644;6.184;2023-11-19T09:26:58;11.30;99.90
15900;DHT22;8048;50.644;6.184;2023-11-19T09:29:23;11.30;99.90
15900;DHT22;8048;50.644;6.184;2023-11-19T09:31:49;11.20;99.90
15900;DHT22;8048;50.644;6.184;2023-11-19T09:34:15;11.30;99.90
15900;DHT22;8048;50.644;6.184;2023-11-19T09:36:40;11.20;99.90
15900;DHT22;8048;50.644;6.184;2023-11-19T09:39:10;11.20;99.90
15900;DHT22;8048;50.644;6.184;2023-11-19T09:41:35;11.20;99.90
15900;DHT22;8048;50.644;6.184;2023-11-19T09:44:01;11.20;99.90
15900;DHT22;8048;50.644;6.184;2023-11-19T09:46:27;11.20;99.90
15900;DHT22;8048;50.644;6.184;2023-11-19T09:48:54;11.50;99.90
15900;DHT22;8048;50.644;6.184;2023-11-19T09:51:20;11.60;99.90
15900;DHT22;8048;50.644;6.184;2023-11-19T09:53:46;11.70;99.90
15900;DHT22;8048;50.644;6.184;2023-11-19T09:56:12;11.90;99.90
15900;DHT22;8048;50.644;6.184;2023-11-19T09:58:38;12.10;99.90
15900;DHT22;8048;50.644;6.184;2023-11-19T10:01:04;12.20;99.90
15900;DHT22;8048;50.644;6.184;2023-11-19T10:03:34;12.10;99.90
15900;DHT22;8048;50.644;6.184;2023-11-19T10:06:07;12.20;99.90
15900;DHT22;8048;50.644;6.184;2023-11-19T10:08:34;12.70;99.90
15900;DHT22;8048;50.644;6.184;2023-11-19T10:10:59;13.20;99.90
15900;DHT22;8048;50.644;6.184;2023-11-19T10:13:31;13.70;99.90
15900;DHT22;8048;50.644;6.184;2023-11-19T10:15:57;13.80;99.90
15900;DHT22;8048;50.644;6.184;2023-11-19T10:18:26;13.80;99.90
15900;DHT22;8048;50.644;6.184;2023-11-19T10:20:52;13.50;99.90
15900;DHT22;8048;50.644;6.184;2023-11-19T10:23:18;13.40;99.90
15900;DHT22;8048;50.644;6.184;2023-11-19T10:25:43;13.70;99.90
15900;DHT22;8048;50.644;6.184;2023-11-19T10:28:09;13.50;99.90
15900;DHT22;8048;50.644;6.184;2023-11-19T10:30:35;13.20;99.90
15900;DHT22;8048;50.644;6.184;2023-11-19T10:33:14;13.10;99.90
15900;DHT22;8048;50.644;6.184;2023-11-19T10:35:55;13.00;99.90
15900;DHT22;8048;50.644;6.184;2023-11-19T10:38:25;12.70;99.90
15900;DHT22;8048;50.644;6.184;2023-11-19T10:40:52;12.50;99.90
15900;DHT22;8048;50.644;6.184;2023-11-19T10:43:19;12.40;99.90
15900;DHT22;8048;50.644;6.184;2023-11-19T10:45:45;12.30;99.90
15900;DHT22;8048;50.644;6.184;2023-11-19T10:48:11;12.20;99.90
15900;DHT22;8048;50.644;6.184;2023-11-19T10:50:39;12.00;99.90
15900;DHT22;8048;50.644;6.184;2023-11-19T10:53:06;12.00;99.90
15900;DHT22;8048;50.644;6.184;2023-11-19T10:55:33;11.90;99.90
15900;DHT22;8048;50.644;6.184;2023-11-19T10:58:04;11.80;99.90
15900;DHT22;8048;50.644;6.184;2023-11-19T11:03:18;11.50;99.90
15900;DHT22;8048;50.644;6.184;2023-11-19T11:05:46;11.40;99.90
15900;DHT22;8048;50.644;6.184;2023-11-19T11:08:13;11.30;99.90
15900;DHT22;8048;50.644;6.184;2023-11-19T11:10:57;11.30;99.90
15900;DHT22;8048;50.644;6.184;2023-11-19T11:13:24;11.20;99.90
15900;DHT22;8048;50.644;6.184;2023-11-19T11:15:50;11.20;99.90
15900;DHT22;8048;50.644;6.184;2023-11-19T11:18:17;11.20;99.90
15900;DHT22;8048;50.644;6.184;2023-11-19T11:20:47;11.20;99.90
15900;DHT22;8048;50.644;6.184;2023-11-19T11:28:18;11.20;99.90
15900;DHT22;8048;50.644;6.184;2023-11-19T11:31:01;11.20;99.90
15900;DHT22;8048;50.644;6.184;2023-11-19T11:36:23;11.50;99.90
15900;DHT22;8048;50.644;6.184;2023-11-19T11:38:49;11.80;99.90
15900;DHT22;8048;50.644;6.184;2023-11-19T11:41:19;11.90;99.90
15900;DHT22;8048;50.644;6.184;2023-11-19T11:43:49;11.90;99.90
15900;DHT22;8048;50.644;6.184;2023-11-19T12:02:09;11.10;99.90
15900;DHT22;8048;50.644;6.184;2023-11-19T12:04:35;11.00;99.90
15900;DHT22;8048;50.644;6.184;2023-11-19T12:07:08;11.00;99.90
15900;DHT22;8048;50.644;6.184;2023-11-19T12:09:36;10.90;99.90
15900;DHT22;8048;50.644;6.184;2023-11-19T12:20:04;10.70;99.90
15900;DHT22;8048;50.644;6.184;2023-11-19T12:22:31;10.70;99.90
15900;DHT22;8048;50.644;6.184;2023-11-19T12:24:57;10.70;99.90
15900;DHT22;8048;50.644;6.184;2023-11-19T12:27:23;10.60;99.90
15900;DHT22;8048;50.644;6.184;2023-11-19T12:29:49;10.60;99.90
15900;DHT22;8048;50.644;6.184;2023-11-19T12:32:15;10.80;99.90
15900;DHT22;8048;50.644;6.184;2023-11-19T12:34:41;11.10;99.90
15900;DHT22;8048;50.644;6.184;2023-11-19T12:37:07;11.30;99.90
15900;DHT22;8048;50.644;6.184;2023-11-19T12:39:35;11.40;99.90
15900;DHT22;8048;50.644;6.184;2023-11-19T12:42:01;11.90;99.90
15900;DHT22;8048;50.644;6.184;2023-11-19T12:44:27;12.30;99.90
15900;DHT22;8048;50.644;6.184;2023-11-19T12:47:06;12.70;99.90
15900;DHT22;8048;50.644;6.184;2023-11-19T12:49:36;12.60;99.90
15900;DHT22;8048;50.644;6.184;2023-11-19T12:52:11;12.50;99.90
15900;DHT22;8048;50.644;6.184;2023-11-19T12:54:38;12.40;99.90
15900;DHT22;8048;50.644;6.184;2023-11-19T12:57:04;12.30;99.90
15900;DHT22;8048;50.644;6.184;2023-11-19T12:59:31;12.20;99.90
15900;DHT22;8048;50.644;6.184;2023-11-19T13:01:57;12.00;99.90
15900;DHT22;8048;50.644;6.184;2023-11-19T13:04:27;12.00;99.90
15900;DHT22;8048;50.644;6.184;2023-11-19T13:06:52;12.00;99.90
15900;DHT22;8048;50.644;6.184;2023-11-19T13:09:25;11.90;99.90
15900;DHT22;8048;50.644;6.184;2023-11-19T13:11:51;12.30;99.90
15900;DHT22;8048;50.644;6.184;2023-11-19T13:14:18;12.90;99.90
15900;DHT22;8048;50.644;6.184;2023-11-19T13:16:44;13.30;99.90
15900;DHT22;8048;50.644;6.184;2023-11-19T13:19:12;13.70;99.90
15900;DHT22;8048;50.644;6.184;2023-11-19T13:21:38;14.00;99.90
15900;DHT22;8048;50.644;6.184;2023-11-19T13:24:05;13.80;99.90
15900;DHT22;8048;50.644;6.184;2023-11-19T13:26:31;13.70;99.90
15900;DHT22;8048;50.644;6.184;2023-11-19T13:28:56;13.40;99.90
15900;DHT22;8048;50.644;6.184;2023-11-19T13:31:22;13.00;99.90
15900;DHT22;8048;50.644;6.184;2023-11-19T13:33:48;12.70;99.90
15900;DHT22;8048;50.644;6.184;2023-11-19T13:36:14;12.40;99.90
15900;DHT22;8048;50.644;6.184;2023-11-19T13:38:39;12.20;99.90
15900;DHT22;8048;50.644;6.184;2023-11-19T13:41:07;12.00;99.90
15900;DHT22;8048;50.644;6.184;2023-11-19T13:43:35;11.90;99.90
15900;DHT22;8048;50.644;6.184;2023-11-19T13:46:01;11.70;99.90
15900;DHT22;8048;50.644;6.184;2023-11-19T13:48:26;11.50;99.90
15900;DHT22;8048;50.644;6.184;2023-11-19T13:50:57;11.40;99.90
15900;DHT22;8048;50.644;6.184;2023-11-19T13:53:22;11.30;99.90
15900;DHT22;8048;50.644;6.184;2023-11-19T13:55:51;11.30;99.90
15900;DHT22;8048;50.644;6.184;2023-11-19T13:58:16;11.30;99.90
15900;DHT22;8048;50.644;6.184;2023-11-19T14:00:42;11.20;99.90
15900;DHT22;8048;50.644;6.184;2023-11-19T14:03:09;11.10;99.90
15900;DHT22;8048;50.644;6.184;2023-11-19T14:05:36;11.10;99.90
15900;DHT22;8048;50.644;6.184;2023-11-19T14:08:02;11.10;99.90
15900;DHT22;8048;50.644;6.184;2023-11-19T14:10:28;11.00;99.90
15900;DHT22;8048;50.644;6.184;2023-11-19T14:12:54;11.00;99.90
15900;DHT22;8048;50.644;6.184;2023-11-19T14:15:20;11.10;99.90
15900;DHT22;8048;50.644;6.184;2023-11-19T14:17:45;11.20;99.90
15900;DHT22;8048;50.644;6.184;2023-11-19T14:20:11;11.20;99.90
15900;DHT22;8048;50.644;6.184;2023-11-19T14:22:45;11.00;99.90
15900;DHT22;8048;50.644;6.184;2023-11-19T14:25:13;10.90;99.90
15900;DHT22;8048;50.644;6.184;2023-11-19T14:27:43;10.90;99.90
15900;DHT22;8048;50.644;6.184;2023-11-19T14:30:10;10.80;99.90
15900;DHT22;8048;50.644;6.184;2023-11-19T14:32:37;10.80;99.90
15900;DHT22;8048;50.644;6.184;2023-11-19T14:35:04;10.90;99.90
15900;DHT22;8048;50.644;6.184;2023-11-19T14:37:30;10.90;99.90
15900;DHT22;8048;50.644;6.184;2023-11-19T14:39:59;10.90;99.90
15900;DHT22;8048;50.644;6.184;2023-11-19T14:42:25;10.90;99.90
15900;DHT22;8048;50.644;6.184;2023-11-19T14:44:51;10.80;99.90
15900;DHT22;8048;50.644;6.184;2023-11-19T14:47:20;10.70;99.90
15900;DHT22;8048;50.644;6.184;2023-11-19T14:49:46;10.70;99.90
15900;DHT22;8048;50.644;6.184;2023-11-19T14:52:11;10.70;99.90
15900;DHT22;8048;50.644;6.184;2023-11-19T14:54:37;10.60;99.90
15900;DHT22;8048;50.644;6.184;2023-11-19T14:57:04;10.60;99.90
15900;DHT22;8048;50.644;6.184;2023-11-19T14:59:30;10.50;99.90
15900;DHT22;8048;50.644;6.184;2023-11-19T15:01:55;10.50;99.90
15900;DHT22;8048;50.644;6.184;2023-11-19T15:04:21;10.50;99.90
15900;DHT22;8048;50.644;6.184;2023-11-19T15:06:46;10.50;99.90
15900;DHT22;8048;50.644;6.184;2023-11-19T15:09:12;10.50;99.90
15900;DHT22;8048;50.644;6.184;2023-11-19T15:11:46;10.50;99.90
15900;DHT22;8048;50.644;6.184;2023-11-19T15:14:15;10.40;99.90
15900;DHT22;8048;50.644;6.184;2023-11-19T15:16:44;10.40;99.90
15900;DHT22;8048;50.644;6.184;2023-11-19T15:19:10;10.40;99.90
15900;DHT22;8048;50.644;6.184;2023-11-19T15:21:35;10.30;99.90
15900;DHT22;8048;50.644;6.184;2023-11-19T15:24:01;10.30;99.90
15900;DHT22;8048;50.644;6.184;2023-11-19T15:26:30;10.20;99.90
15900;DHT22;8048;50.644;6.184;2023-11-19T15:28:55;10.20;99.90
15900;DHT22;8048;50.644;6.184;2023-11-19T15:31:23;10.10;99.90
15900;DHT22;8048;50.644;6.184;2023-11-19T15:33:48;10.10;99.90
15900;DHT22;8048;50.644;6.184;2023-11-19T15:36:14;10.00;99.90
15900;DHT22;8048;50.644;6.184;2023-11-19T15:38:40;9.90;99.90
15900;DHT22;8048;50.644;6.184;2023-11-19T15:41:06;9.90;99.90
15900;DHT22;8048;50.644;6.184;2023-11-19T15:43:33;9.90;99.90
15900;DHT22;8048;50.644;6.184;2023-11-19T15:45:58;9.80;99.90
15900;DHT22;8048;50.644;6.184;2023-11-19T15:48:24;9.80;99.90
15900;DHT22;8048;50.644;6.184;2023-11-19T15:50:51;9.80;99.90
15900;DHT22;8048;50.644;6.184;2023-11-19T15:53:17;9.80;99.90
15900;DHT22;8048;50.644;6.184;2023-11-19T15:55:44;9.80;99.90
15900;DHT22;8048;50.644;6.184;2023-11-19T15:58:09;9.80;99.90
15900;DHT22;8048;50.644;6.184;2023-11-19T16:00:35;9.80;99.90
15900;DHT22;8048;50.644;6.184;2023-11-19T16:03:00;9.80;99.90
15900;DHT22;8048;50.644;6.184;2023-11-19T16:05:26;9.80;99.90
15900;DHT22;8048;50.644;6.184;2023-11-19T16:07:51;9.80;99.90
15900;DHT22;8048;50.644;6.184;2023-11-19T16:10:17;9.80;99.90
15900;DHT22;8048;50.644;6.184;2023-11-19T16:12:45;9.80;99.90
15900;DHT22;8048;50.644;6.184;2023-11-19T16:15:11;9.80;99.90
15900;DHT22;8048;50.644;6.184;2023-11-19T16:17:38;9.80;99.90